Time;durP1;ratioP1;P1;durP2;ratioP2;P2;SDS_P1;SDS_P2;PMS_P1;PMS_P2;Temp;Humidity;BMP_temperature;BMP_pressure;BME280_temperature;BME280_humidity;BME280_pressure;Samples;Min_cycle;Max_cycle;Signal;HPM_P1;HPM_P2
2022/11/19 00:00:46;;;;;;;4.13;3.15;;;17.20;80.90;;;18.23;44.42;97883.28;5026573;28;20382;-73
2022/11/19 00:03:17;;;;;;;4.78;3.33;;;17.30;80.80;;;18.23;44.35;97892.31;5026140;28;20052;-73
2022/11/19 00:05:45;;;;;;;4.57;3.45;;;17.30;80.80;;;18.23;44.70;97897.81;5027565;28;20053;-74
2022/11/19 00:08:17;;;;;;;3.78;3.00;;;17.30;80.90;;;18.27;44.60;97895.19;5027273;28;20049;-73
2022/11/19 00:10:44;;;;;;;4.18;3.22;;;17.30;81.10;;;18.20;44.67;97884.00;5001881;28;20041;-74
2022/11/19 00:13:11;;;;;;;5.10;3.42;;;17.30;81.00;;;18.23;44.38;97886.81;5011694;28;20503;-72
2022/11/19 00:15:40;;;;;;;5.15;3.45;;;17.30;80.80;;;18.19;44.44;97880.44;5029180;28;20045;-72
2022/11/19 00:18:06;;;;;;;3.60;2.70;;;17.30;80.70;;;18.21;44.40;97882.84;5025943;28;20049;-72
2022/11/19 00:20:33;;;;;;;3.63;2.80;;;17.30;80.70;;;18.24;44.32;97887.63;5026810;28;20060;-72
2022/11/19 00:22:59;;;;;;;4.65;3.65;;;17.20;80.70;;;18.19;44.63;97885.13;5030081;28;20076;-72
2022/11/19 00:25:27;;;;;;;6.03;3.58;;;17.30;81.00;;;18.23;44.37;97899.75;5026639;28;20044;-72
2022/11/19 00:27:55;;;;;;;3.92;3.53;;;17.30;80.90;;;18.18;44.63;97900.00;5025147;28;20064;-72
2022/11/19 00:30:21;;;;;;;4.68;3.38;;;17.30;80.80;;;18.18;44.46;97900.78;5028093;28;20038;-73
2022/11/19 00:32:47;;;;;;;3.75;3.42;;;17.30;80.80;;;18.14;44.48;97907.31;4995562;28;20179;-73
2022/11/19 00:35:13;;;;;;;4.65;3.00;;;17.30;80.80;;;18.21;44.47;97904.78;5002463;28;20063;-73
2022/11/19 00:37:40;;;;;;;3.88;2.90;;;17.30;80.70;;;18.19;44.61;97909.81;5028056;28;20041;-73
2022/11/19 00:40:07;;;;;;;3.90;3.13;;;17.30;81.00;;;18.14;44.59;97907.31;5027435;28;20041;-73
2022/11/19 00:42:34;;;;;;;4.57;2.85;;;17.30;81.10;;;18.15;44.68;97912.47;5011353;28;20116;-73
2022/11/19 00:45:00;;;;;;;4.43;3.10;;;17.20;81.10;;;18.17;44.56;97903.91;5025814;28;20430;-73
2022/11/19 00:47:26;;;;;;;4.95;3.35;;;17.30;80.90;;;18.14;44.65;97908.13;5028810;28;20076;-73
2022/11/19 00:49:52;;;;;;;6.53;3.58;;;17.20;80.80;;;18.15;44.47;97914.41;5027039;28;20489;-73
2022/11/19 00:52:18;;;;;;;5.25;3.55;;;17.20;80.80;;;18.11;44.58;97905.25;5011288;28;20037;-73
2022/11/19 00:54:45;;;;;;;4.18;3.28;;;17.20;80.70;;;18.15;44.76;97904.22;5026794;28;20477;-73
2022/11/19 00:57:11;;;;;;;4.55;3.40;;;17.30;81.00;;;18.15;44.81;97908.94;5026363;28;20037;-73
2022/11/19 00:59:37;;;;;;;3.45;3.15;;;17.30;81.10;;;18.13;44.91;97902.97;5028145;28;20038;-73
2022/11/19 01:02:03;;;;;;;4.05;2.70;;;17.20;80.80;;;18.10;44.57;97904.47;5028076;28;20044;-73
2022/11/19 01:04:29;;;;;;;4.57;3.17;;;17.20;80.90;;;18.11;44.49;97902.53;5023793;28;20457;-73
2022/11/19 01:06:55;;;;;;;4.32;3.28;;;17.20;80.60;;;18.11;44.18;97905.25;5023689;28;20051;-73
2022/11/19 01:09:21;;;;;;;5.00;3.10;;;17.20;80.60;;;18.10;44.77;97904.47;5028634;28;20039;-73
2022/11/19 01:11:47;;;;;;;5.18;2.70;;;17.20;80.90;;;18.14;44.64;97915.53;5026154;28;20046;-73
2022/11/19 01:14:13;;;;;;;4.00;3.40;;;17.10;81.20;;;18.13;44.85;97913.97;4994244;28;20052;-73
2022/11/19 01:16:40;;;;;;;4.38;2.88;;;17.20;81.20;;;18.11;44.56;97908.81;5009799;28;20454;-73
2022/11/19 01:19:08;;;;;;;4.30;2.92;;;17.20;80.80;;;18.10;44.39;97914.66;5025298;28;20040;-73
2022/11/19 01:21:37;;;;;;;3.08;2.78;;;17.20;80.60;;;18.12;44.41;97913.16;5028129;28;20465;-73
2022/11/19 01:24:04;;;;;;;6.18;2.92;;;17.30;80.50;;;18.04;44.56;97916.84;5044581;28;20053;-73
2022/11/19 01:26:30;;;;;;;3.25;2.95;;;17.20;80.60;;;18.11;44.80;97922.53;5029778;28;20068;-73
2022/11/19 01:28:56;;;;;;;5.55;3.42;;;17.20;81.00;;;18.08;44.68;97919.69;5031743;28;20092;-73
2022/11/19 01:31:27;;;;;;;7.95;3.25;;;17.20;80.90;;;18.09;44.73;97918.53;5032549;28;20065;-73
2022/11/19 01:33:53;;;;;;;4.07;2.50;;;17.20;81.00;;;18.05;44.60;97923.13;5015466;28;20045;-73
2022/11/19 01:36:25;;;;;;;4.35;3.22;;;17.20;80.60;;;18.04;44.57;97932.47;5025372;28;20042;-73
2022/11/19 01:38:51;;;;;;;4.53;3.25;;;17.10;80.60;;;17.99;44.58;97933.53;5029149;28;20046;-73
2022/11/19 01:41:28;;;;;;;4.85;3.67;;;17.20;80.60;;;18.02;44.62;97923.81;4994718;28;20047;-73
2022/11/19 01:44:00;;;;;;;4.53;3.40;;;17.10;80.60;;;18.06;44.55;97925.50;5027322;28;20474;-73
2022/11/19 01:46:31;;;;;;;4.00;2.80;;;17.20;81.00;;;18.07;44.68;97929.06;5024397;28;20057;-73
2022/11/19 01:49:09;;;;;;;4.82;3.50;;;17.20;80.90;;;18.08;44.47;97927.91;5025219;28;20123;-73
2022/11/19 01:51:39;;;;;;;5.60;3.33;;;17.20;80.60;;;18.02;44.51;97930.09;5026088;28;20517;-73
2022/11/19 01:54:18;;;;;;;5.67;3.27;;;17.10;80.50;;;18.01;44.52;97931.22;5011396;28;20049;-73
2022/11/19 01:56:45;;;;;;;3.45;2.85;;;17.10;80.50;;;17.94;44.57;97937.31;5028290;28;20296;-73
2022/11/19 01:59:15;;;;;;;3.95;2.90;;;17.10;80.40;;;18.02;44.69;97940.28;5013182;28;20567;-73
2022/11/19 02:01:41;;;;;;;5.63;3.85;;;17.10;80.80;;;17.97;44.87;97939.34;5015264;28;20124;-73
2022/11/19 02:04:07;;;;;;;4.07;2.55;;;17.10;81.10;;;18.02;44.43;97940.28;5014328;28;20056;-73
2022/11/19 02:06:33;;;;;;;5.00;2.85;;;17.20;80.60;;;18.04;44.60;97938.78;5013139;28;20039;-73
2022/11/19 02:09:00;;;;;;;4.35;2.95;;;17.10;80.60;;;18.04;44.38;97943.44;5030009;28;20529;-73
2022/11/19 02:12:19;;;;;;;4.50;3.00;;;17.10;80.50;;;18.03;44.31;97950.09;5025485;28;20049;-73
2022/11/19 02:15:05;;;;;;;5.45;2.78;;;17.10;80.30;;;18.06;44.39;97949.41;5029968;28;20044;-73
2022/11/19 02:18:05;;;;;;;4.22;2.83;;;17.10;80.70;;;18.07;44.38;97954.56;5028229;28;20548;-73
2022/11/19 02:21:02;;;;;;;5.53;2.92;;;17.10;80.80;;;18.02;44.35;97948.50;5027956;28;20060;-72
2022/11/19 02:23:40;;;;;;;3.10;2.80;;;17.10;80.70;;;18.03;44.48;97961.06;5032659;28;20142;-72
2022/11/19 02:26:48;;;;;;;6.40;3.95;;;17.10;80.70;;;18.01;44.49;97964.16;5030460;28;20045;-73
2022/11/19 02:29:29;;;;;;;4.50;2.78;;;17.00;80.70;;;18.07;44.25;97981.22;5029799;28;20046;-73
2022/11/19 02:32:11;;;;;;;4.23;2.93;;;17.00;80.70;;;18.04;44.36;97979.13;5030238;28;20041;-73
2022/11/19 02:34:54;;;;;;;3.50;3.20;;;17.00;81.80;;;18.08;44.33;97977.31;4997654;28;20049;-73
2022/11/19 02:37:41;;;;;;;3.38;2.33;;;17.10;81.00;;;18.08;44.33;97977.31;5029170;28;20049;-72
2022/11/19 02:40:17;;;;;;;4.05;2.63;;;17.10;80.60;;;18.07;44.21;97972.97;5030924;28;20052;-72
2022/11/19 02:43:12;;;;;;;5.72;2.38;;;17.10;80.70;;;18.01;44.21;97966.88;5029141;28;20041;-72
2022/11/19 02:45:45;;;;;;;4.38;3.00;;;17.10;80.60;;;18.07;44.18;97970.22;5030020;28;20722;-72
2022/11/19 02:48:23;;;;;;;3.53;3.22;;;17.10;80.50;;;18.13;44.39;97977.88;5014975;28;20045;-72
2022/11/19 02:50:54;;;;;;;3.22;2.75;;;17.10;80.70;;;18.12;44.45;97991.97;5027860;28;20073;-73
2022/11/19 02:53:21;;;;;;;5.10;3.40;;;17.10;80.80;;;18.13;44.25;97996.28;5029337;28;20123;-73
2022/11/19 02:56:09;;;;;;;2.60;2.40;;;17.10;80.70;;;18.17;44.21;98013.69;5036264;28;20978;-73
2022/11/19 03:06:48;;;;;;;3.97;2.72;;;17.20;80.60;;;18.14;44.39;98011.59;5030880;28;20049;-73
2022/11/19 03:09:15;;;;;;;3.85;2.58;;;17.20;80.70;;;18.13;44.39;98018.25;5013582;28;20451;-73
2022/11/19 03:11:41;;;;;;;3.00;2.70;;;17.20;80.50;;;18.23;44.11;98009.56;5013452;28;20045;-73
2022/11/19 03:17:11;;;;;;;4.50;2.80;;;17.20;80.40;;;18.26;43.56;98019.06;5021868;28;20113;-73
2022/11/19 03:20:03;;;;;;;3.90;2.70;;;17.20;80.00;;;18.25;44.05;98010.03;5029684;28;20107;-73
2022/11/19 03:22:41;;;;;;;;;;;17.20;80.40;;;18.27;44.06;98013.22;5029664;28;20500;-72
2022/11/19 03:25:40;;;;;;;5.43;2.75;;;17.30;80.60;;;18.31;44.08;98022.38;5022098;28;20288;-73
2022/11/19 03:28:13;;;;;;;3.22;2.15;;;17.20;80.50;;;18.28;44.09;98017.56;5020794;28;20053;-73
2022/11/19 03:30:40;;;;;;;3.78;2.50;;;17.20;80.60;;;18.33;43.79;98020.06;5027623;28;20285;-73
2022/11/19 03:33:14;;;;;;;4.22;2.95;;;17.30;80.30;;;18.34;43.88;98029.09;5013351;28;20150;-73
2022/11/19 03:35:45;;;;;;;3.13;2.70;;;17.30;80.30;;;18.38;43.81;98033.56;5028410;28;20412;-73
2022/11/19 03:38:15;;;;;;;5.33;3.23;;;17.30;80.50;;;18.38;44.17;98033.56;5027505;28;20048;-73
2022/11/19 03:40:42;;;;;;;3.78;2.55;;;17.30;80.60;;;18.38;43.80;98036.31;5012529;28;20364;-73
2022/11/19 03:43:09;;;;;;;3.95;2.80;;;17.30;80.50;;;18.38;44.08;98036.31;5029678;28;20065;-73
2022/11/19 03:45:39;;;;;;;3.05;2.70;;;17.20;80.70;;;18.38;43.76;98041.00;5008717;28;20088;-73
2022/11/19 03:48:05;;;;;;;3.33;2.38;;;17.30;80.30;;;18.38;43.94;98044.56;5028532;28;20041;-73
2022/11/19 03:50:57;;;;;;;2.65;2.45;;;17.30;81.20;;;18.38;44.03;98052.78;5012287;28;20053;-73
2022/11/19 03:53:23;;;;;;;3.47;2.53;;;17.30;80.40;;;18.43;43.60;98044.31;4998006;28;20075;-72
2022/11/19 03:56:09;;;;;;;3.22;2.60;;;17.30;80.20;;;18.36;43.70;98052.34;5027496;28;20401;-72
2022/11/19 03:58:41;;;;;;;4.38;2.72;;;17.30;80.00;;;18.42;43.71;98042.75;5030224;28;20184;-72
2022/11/19 04:01:07;;;;;;;2.67;2.47;;;17.40;79.90;;;18.42;43.46;98036.44;5027761;28;20041;-72
2022/11/19 04:03:34;;;;;;;5.47;3.15;;;17.30;79.80;;;18.43;43.59;98055.31;5009985;28;20050;-72
2022/11/19 04:06:00;;;;;;;5.22;2.97;;;17.30;80.20;;;18.46;43.91;98047.53;5024841;28;20054;-72
2022/11/19 04:08:26;;;;;;;4.90;2.35;;;17.30;80.40;;;18.46;43.67;98050.28;5024559;28;20038;-73
2022/11/19 04:10:52;;;;;;;5.53;3.90;;;17.30;80.10;;;18.51;43.40;98052.78;5027289;28;20542;-73
2022/11/19 04:13:18;;;;;;;3.30;2.97;;;17.30;80.00;;;18.47;43.40;98051.88;5021267;28;20041;-72
2022/11/19 04:15:44;;;;;;;3.40;2.50;;;17.30;79.80;;;18.49;43.28;98049.59;5027814;28;20033;-73
2022/11/19 04:18:10;;;;;;;2.17;2.03;;;17.30;79.80;;;18.51;43.21;98053.59;5010203;28;20048;-73
2022/11/19 04:20:37;;;;;;;3.47;2.78;;;17.30;79.70;;;18.53;43.52;98056.00;5028297;28;20037;-73
2022/11/19 04:23:02;;;;;;;3.13;2.17;;;17.30;80.20;;;18.59;43.29;98057.38;5027306;28;20106;-73
2022/11/19 04:25:29;;;;;;;2.40;2.20;;;17.30;80.10;;;18.58;43.36;98055.78;5012293;28;20084;-73
2022/11/19 04:27:55;;;;;;;3.95;2.38;;;17.30;79.80;;;18.55;43.16;98056.47;5028443;28;20041;-73
2022/11/19 04:30:21;;;;;;;3.42;2.38;;;17.30;79.70;;;18.55;43.13;98071.00;5026284;28;20491;-73
2022/11/19 04:32:47;;;;;;;4.10;2.58;;;17.30;79.70;;;18.58;43.27;98066.75;5027923;28;20041;-73
2022/11/19 04:35:16;;;;;;;2.70;2.25;;;17.30;79.40;;;18.62;43.08;98067.66;4995123;28;20140;-73
2022/11/19 04:37:42;;;;;;;3.58;2.35;;;17.40;79.80;;;18.58;43.30;98075.00;5027533;28;20088;-73
2022/11/19 04:40:09;;;;;;;3.20;2.40;;;17.30;79.80;;;18.58;43.23;98064.00;5028425;28;20125;-73
2022/11/19 04:42:35;;;;;;;2.28;1.90;;;17.40;80.10;;;18.63;43.07;98070.06;5028588;28;20103;-72
2022/11/19 04:45:02;;;;;;;3.05;2.75;;;17.30;79.80;;;18.60;42.85;98070.75;5011084;28;20036;-72
2022/11/19 04:47:28;;;;;;;4.88;2.92;;;17.30;79.80;;;18.66;42.69;98072.13;5028245;28;20041;-72
2022/11/19 04:49:54;;;;;;;3.00;2.80;;;17.30;79.60;;;18.66;42.79;98080.34;5012655;28;20516;-72
2022/11/19 04:52:20;;;;;;;2.45;2.25;;;17.30;79.50;;;18.62;43.12;98090.44;5028009;28;20033;-72
2022/11/19 04:54:46;;;;;;;3.53;2.30;;;17.30;79.80;;;18.74;42.94;98089.63;4995270;28;20045;-72
2022/11/19 04:57:12;;;;;;;3.85;2.67;;;17.30;80.10;;;18.65;43.12;98095.25;5026853;28;20087;-72
2022/11/19 04:59:38;;;;;;;3.58;3.03;;;17.40;79.80;;;18.69;42.97;98089.06;5021006;28;20041;-72
2022/11/19 05:02:04;;;;;;;3.80;2.78;;;17.40;79.80;;;18.77;42.69;98099.94;5028932;28;20798;-72
2022/11/19 05:04:30;;;;;;;3.50;2.60;;;17.40;79.80;;;18.73;42.69;98107.25;5027760;28;20053;-72
2022/11/19 05:06:56;;;;;;;3.10;2.30;;;17.40;79.60;;;18.72;42.72;98105.66;5031532;28;20041;-72
2022/11/19 05:09:22;;;;;;;2.72;2.30;;;17.40;79.50;;;18.66;42.85;98109.78;5029283;28;20079;-72
2022/11/19 05:11:49;;;;;;;6.35;2.50;;;17.40;79.80;;;18.76;43.00;98109.34;5030816;28;20711;-72
2022/11/19 05:14:15;;;;;;;6.32;2.67;;;17.40;79.80;;;18.74;43.01;98119.06;5012361;28;20060;-72
2022/11/19 05:16:41;;;;;;;4.50;2.33;;;17.40;79.70;;;18.73;42.73;98121.00;5012067;28;20041;-72
2022/11/19 05:19:07;;;;;;;3.83;2.35;;;17.50;79.50;;;18.76;42.60;98127.78;5012383;28;20046;-72
2022/11/19 05:21:33;;;;;;;3.80;2.83;;;17.50;79.30;;;18.80;42.53;98134.19;5042274;28;20044;-72
2022/11/19 05:24:02;;;;;;;2.63;2.42;;;17.50;79.20;;;18.82;42.67;98148.38;5025856;28;20136;-72
2022/11/19 05:26:27;;;;;;;3.28;2.25;;;17.50;79.40;;;18.88;42.77;98155.25;5012068;28;20124;-72
2022/11/19 05:28:55;;;;;;;4.93;2.90;;;17.50;79.70;;;18.85;42.67;98155.94;5028130;28;20037;-72
2022/11/19 05:31:21;;;;;;;3.15;2.28;;;17.40;79.80;;;18.90;42.55;98152.16;5027422;28;20416;-72
2022/11/19 05:33:47;;;;;;;3.72;2.50;;;17.50;79.60;;;18.88;42.36;98152.50;5031695;28;20041;-72
2022/11/19 05:36:13;;;;;;;3.35;2.25;;;17.50;79.30;;;18.87;42.47;98157.19;5032109;28;20064;-72
2022/11/19 05:38:40;;;;;;;2.38;2.17;;;17.50;79.20;;;18.90;42.25;98168.63;5031914;28;20095;-72
2022/11/19 05:41:05;;;;;;;2.85;2.65;;;17.50;79.40;;;18.97;42.40;98166.91;5031966;28;20049;-72
2022/11/19 05:43:32;;;;;;;2.58;2.38;;;17.50;79.60;;;18.92;42.57;98158.09;5030619;28;20050;-72
2022/11/19 05:46:00;;;;;;;2.35;2.15;;;17.60;79.60;;;18.99;42.30;98159.13;5015814;28;20064;-72
2022/11/19 05:48:27;;;;;;;4.22;2.13;;;17.60;79.40;;;18.93;42.49;98167.94;5032130;28;20045;-73
2022/11/19 05:50:53;;;;;;;3.95;2.72;;;17.60;79.20;;;18.91;42.63;98167.50;5015183;28;20497;-73
2022/11/19 05:53:19;;;;;;;3.33;2.30;;;17.60;79.00;;;19.01;42.35;98172.53;5032627;28;20657;-73
2022/11/19 05:55:45;;;;;;;3.60;2.50;;;17.70;79.10;;;19.03;42.29;98178.47;5029524;28;20037;-73
2022/11/19 05:58:12;;;;;;;3.13;2.72;;;17.60;79.00;;;18.97;42.17;98185.34;5028861;28;20524;-73
2022/11/19 06:00:38;;;;;;;3.15;2.10;;;17.70;79.10;;;18.99;42.33;98191.31;5031202;28;20041;-73
2022/11/19 06:03:04;;;;;;;2.45;2.22;;;17.60;78.90;;;19.03;42.42;98189.47;5023561;28;20049;-73
2022/11/19 06:05:30;;;;;;;3.30;2.50;;;17.70;79.20;;;19.10;42.28;98200.69;5029443;28;20053;-73
2022/11/19 06:07:56;;;;;;;3.95;2.50;;;17.70;79.40;;;19.09;42.67;98212.84;5031036;28;20041;-73
2022/11/19 06:10:23;;;;;;;2.47;2.28;;;17.70;79.20;;;19.12;42.31;98217.66;5030574;28;20049;-73
2022/11/19 06:12:49;;;;;;;3.28;2.67;;;17.70;79.10;;;19.12;42.16;98222.34;5029739;28;20044;-73
2022/11/19 06:15:15;;;;;;;3.80;2.83;;;17.70;79.20;;;19.12;42.30;98225.91;5029164;28;20033;-73
2022/11/19 06:17:41;;;;;;;3.35;2.65;;;17.80;79.20;;;19.09;42.19;98226.59;5014491;28;20184;-73
2022/11/19 06:20:09;;;;;;;4.80;2.65;;;17.80;79.20;;;19.12;42.44;98231.41;5029549;28;20413;-73
2022/11/19 06:22:36;;;;;;;3.40;2.20;;;17.80;79.40;;;19.11;42.47;98218.81;5011300;28;20633;-73
2022/11/19 06:25:06;;;;;;;3.58;2.85;;;17.70;79.50;;;19.14;42.28;98217.31;5026003;28;20049;-73
2022/11/19 06:27:33;;;;;;;3.85;2.47;;;17.70;79.50;;;19.11;42.44;98218.81;5015560;28;20040;-73
2022/11/19 06:29:59;;;;;;;3.22;2.25;;;17.80;79.50;;;19.18;42.10;98223.72;5028691;28;20056;-73
2022/11/19 06:32:26;;;;;;;3.20;2.72;;;17.80;79.20;;;19.14;42.32;98231.84;5027974;28;20049;-73
2022/11/19 06:34:52;;;;;;;3.47;2.47;;;17.80;79.40;;;19.15;42.44;98238.94;5045671;28;20056;-73
2022/11/19 06:37:18;;;;;;;4.45;2.55;;;17.80;79.40;;;19.18;42.44;98249.25;5028269;28;20056;-72
2022/11/19 06:39:44;;;;;;;2.67;2.38;;;17.80;79.40;;;19.16;42.43;98251.56;5028511;28;20041;-72
2022/11/19 06:44:55;;;;;;;2.97;2.63;;;17.80;79.40;;;19.18;42.21;98260.25;5025590;28;20042;-73
2022/11/19 06:47:21;;;;;;;4.60;2.38;;;17.90;79.30;;;19.22;42.12;98261.19;5028921;28;20412;-73
2022/11/19 06:49:47;;;;;;;2.53;2.30;;;17.80;79.20;;;19.22;42.35;98268.63;5030069;28;20049;-73
2022/11/19 06:52:13;;;;;;;4.18;3.00;;;17.90;79.10;;;19.17;42.21;98266.91;5026388;28;20042;-73
2022/11/19 06:54:41;;;;;;;3.40;2.67;;;17.90;79.30;;;19.25;42.43;98282.47;5013887;28;20049;-73
2022/11/19 06:57:07;;;;;;;3.20;2.63;;;17.80;79.30;;;19.27;42.38;98280.19;5028268;28;20045;-72
2022/11/19 06:59:33;;;;;;;4.03;2.97;;;18.00;79.20;;;19.25;42.25;98281.69;5025414;28;20107;-72
2022/11/19 07:02:00;;;;;;;2.72;2.20;;;18.00;79.20;;;19.24;42.25;98288.34;5027447;28;20417;-72
2022/11/19 07:04:26;;;;;;;3.03;2.33;;;18.00;79.00;;;19.28;42.11;98287.31;5027125;28;20056;-73
2022/11/19 07:06:52;;;;;;;4.65;3.05;;;18.00;78.80;;;19.27;42.22;98288.44;5027854;28;20048;-73
2022/11/19 07:09:18;;;;;;;5.15;2.33;;;18.00;78.90;;;19.27;42.25;98288.44;5027840;28;20043;-73
2022/11/19 07:11:44;;;;;;;2.67;2.40;;;18.00;79.30;;;19.29;42.40;98277.91;5028382;28;20053;-73
2022/11/19 07:14:10;;;;;;;2.80;2.40;;;18.00;79.40;;;19.25;42.35;98287.97;5026288;28;20046;-72
2022/11/19 07:16:39;;;;;;;4.03;2.50;;;18.00;79.30;;;19.30;42.21;98290.50;5027699;28;20564;-76
2022/11/19 07:19:06;;;;;;;2.65;2.45;;;18.00;79.10;;;19.30;42.12;98284.22;5028557;28;20046;-74
2022/11/19 07:21:32;;;;;;;3.53;2.45;;;18.00;78.90;;;19.30;42.15;98290.50;5011460;28;20048;-73
2022/11/19 07:23:59;;;;;;;3.88;3.20;;;18.00;78.80;;;19.32;42.56;98292.91;5027495;28;20404;-73
2022/11/19 07:26:26;;;;;;;5.60;2.70;;;18.10;79.00;;;19.32;42.26;98292.13;5027864;28;20045;-72
2022/11/19 07:28:52;;;;;;;4.03;2.60;;;18.10;79.00;;;19.36;42.11;98290.28;5043455;28;20046;-72
2022/11/19 07:31:18;;;;;;;3.42;3.13;;;18.10;79.10;;;19.32;42.34;98289.38;5025464;28;20045;-72
2022/11/19 07:33:44;;;;;;;3.75;3.28;;;18.10;79.00;;;19.37;42.13;98284.44;5028107;28;20139;-72
2022/11/19 07:36:10;;;;;;;6.20;3.03;;;18.10;79.00;;;19.41;42.21;98298.28;5028976;28;20404;-72
2022/11/19 07:38:37;;;;;;;4.63;3.33;;;18.10;78.80;;;19.38;42.04;98302.53;4994460;28;20048;-72
2022/11/19 07:43:49;;;;;;;6.70;2.80;;;18.10;78.90;;;19.40;42.29;98299.44;5026716;28;20489;-73
2022/11/19 07:46:16;;;;;;;13.90;3.05;;;18.10;78.90;;;19.40;42.22;98307.69;5024459;28;20046;-75
2022/11/19 07:48:42;;;;;;;2.90;2.63;;;18.20;79.00;;;19.41;41.97;98310.13;5007433;28;20048;-73
2022/11/19 07:51:08;;;;;;;4.35;2.95;;;18.20;78.50;;;19.37;42.15;98309.19;5025451;28;20049;-73
2022/11/19 07:53:34;;;;;;;4.75;3.30;;;18.20;78.60;;;19.37;41.98;98311.16;5012439;28;20033;-73
2022/11/19 07:56:01;;;;;;;4.93;3.15;;;18.20;78.40;;;19.39;42.05;98306.91;5006555;28;20140;-73
2022/11/19 07:58:27;;;;;;;6.93;3.25;;;18.20;78.70;;;19.41;42.10;98306.53;4993322;28;20144;-73
2022/11/19 08:00:53;;;;;;;3.60;2.60;;;18.10;78.90;;;19.45;41.87;98307.47;5028351;28;20522;-73
2022/11/19 08:03:19;;;;;;;3.13;2.83;;;18.20;79.00;;;19.37;42.02;98309.19;5040034;28;20050;-73
2022/11/19 08:05:45;;;;;;;4.55;3.05;;;18.20;78.80;;;19.39;42.15;98309.66;5023686;28;20073;-73
2022/11/19 08:08:11;;;;;;;2.80;2.58;;;18.20;78.70;;;19.36;41.92;98304.03;5021089;28;20564;-74
2022/11/19 08:10:37;;;;;;;6.13;3.60;;;18.20;78.60;;;19.38;41.95;98307.22;5030247;28;20037;-73
2022/11/19 08:13:03;;;;;;;4.30;2.90;;;18.20;78.30;;;19.36;41.90;98310.34;5006940;28;20607;-73
2022/11/19 08:15:31;;;;;;;5.70;3.00;;;18.10;78.60;;;19.38;42.18;98310.78;5040404;28;20362;-73
2022/11/19 08:18:12;;;;;;;8.98;2.95;;;18.20;78.90;;;19.36;42.25;98309.53;5011526;28;20045;-72
2022/11/19 08:20:40;;;;;;;6.22;3.22;;;18.20;78.60;;;19.39;41.96;98301.41;5027115;28;20041;-73
2022/11/19 08:23:06;;;;;;;3.55;3.20;;;18.20;78.60;;;19.25;41.69;98304.47;5025634;28;20041;-72
2022/11/19 08:25:32;;;;;;;5.75;3.22;;;18.10;78.20;;;19.19;41.11;98314.09;5022257;28;20045;-73
2022/11/19 08:27:58;;;;;;;3.65;2.63;;;18.10;77.30;;;19.18;40.58;98322.69;5027083;28;20037;-73
2022/11/19 08:30:24;;;;;;;5.47;3.03;;;18.10;76.60;;;19.14;40.89;98327.28;5022423;28;20038;-72
2022/11/19 08:32:50;;;;;;;3.08;2.78;;;18.00;76.50;;;19.25;40.76;98325.69;5020764;28;20060;-72
2022/11/19 08:35:16;;;;;;;4.82;3.33;;;18.20;76.60;;;19.30;40.80;98328.19;5021845;28;20041;-72
2022/11/19 08:37:42;;;;;;;5.75;3.33;;;18.20;76.50;;;19.26;40.85;98325.34;5026922;28;20098;-72
2022/11/19 08:40:09;;;;;;;6.32;3.40;;;18.20;76.70;;;19.34;40.73;98322.84;5026559;28;20512;-73
2022/11/19 08:45:21;;;;;;;4.38;3.10;;;18.20;76.70;;;19.36;40.96;98331.53;5022560;28;20037;-73
2022/11/19 08:47:47;;;;;;;6.75;3.03;;;18.20;76.80;;;19.34;41.26;98331.09;5022435;28;20077;-73
2022/11/19 08:50:13;;;;;;;3.90;3.00;;;18.20;77.30;;;19.37;41.47;98335.91;5026552;28;20409;-73
2022/11/19 08:52:40;;;;;;;3.85;3.15;;;18.30;77.20;;;19.36;41.20;98337.03;5009952;28;20056;-73
2022/11/19 08:55:07;;;;;;;3.88;3.25;;;18.30;76.80;;;19.42;41.06;98335.66;5008647;28;20045;-73
2022/11/19 08:57:33;;;;;;;3.10;2.78;;;18.30;76.80;;;19.42;40.97;98341.16;5027315;28;20045;-73
2022/11/19 08:59:59;;;;;;;3.60;2.92;;;18.30;76.80;;;19.40;41.00;98348.94;5025880;28;20045;-73
2022/11/19 09:02:25;;;;;;;5.13;2.75;;;18.30;76.80;;;19.39;41.30;98353.66;5026351;28;20045;-73
2022/11/19 09:04:51;;;;;;;4.65;3.22;;;18.30;77.40;;;19.45;41.58;98359.72;5027283;28;20504;-73
2022/11/19 09:07:17;;;;;;;4.32;2.60;;;18.30;77.50;;;19.44;41.16;98358.13;5021315;28;20044;-73
2022/11/19 09:09:44;;;;;;;4.03;2.92;;;18.30;77.50;;;19.44;41.15;98355.38;5025965;28;20073;-73
2022/11/19 09:12:10;;;;;;;3.58;3.25;;;18.30;77.00;;;19.40;41.25;98354.44;5019765;28;20044;-73
2022/11/19 09:14:36;;;;;;;4.95;3.10;;;18.40;76.90;;;19.38;41.49;98359.50;5018537;28;20107;-73
2022/11/19 09:17:02;;;;;;;3.15;2.67;;;18.30;76.90;;;19.43;41.33;98357.31;5027078;28;20108;-73
2022/11/19 09:19:28;;;;;;;5.50;3.55;;;18.30;77.20;;;19.45;41.60;98365.22;5024790;28;20044;-73
2022/11/19 09:21:54;;;;;;;9.20;2.72;;;18.30;77.60;;;19.44;41.75;98366.38;5026987;28;20596;-73
2022/11/19 09:24:21;;;;;;;3.03;2.50;;;18.30;77.70;;;19.44;41.53;98364.44;5023871;28;20057;-73
2022/11/19 09:26:47;;;;;;;3.38;2.35;;;18.40;77.50;;;19.39;41.62;98372.13;5008636;28;20133;-74
2022/11/19 09:29:13;;;;;;;3.63;2.92;;;18.30;77.40;;;19.32;41.41;98375.41;5026466;28;20049;-73
2022/11/19 09:31:39;;;;;;;4.95;3.50;;;18.40;77.00;;;19.39;41.25;98372.91;5026162;28;20051;-73
2022/11/19 09:34:05;;;;;;;4.32;2.85;;;18.30;76.80;;;19.37;41.83;98371.66;5026630;28;20046;-73
2022/11/19 09:36:31;;;;;;;4.32;3.20;;;18.30;77.70;;;19.39;41.81;98369.38;5025283;28;20408;-73
2022/11/19 09:38:57;;;;;;;3.65;2.92;;;18.20;78.00;;;19.40;41.85;98377.25;5026266;28;20052;-73
2022/11/19 09:41:43;;;;;;;5.72;3.25;;;18.30;77.90;;;19.41;41.66;98378.88;5025875;28;20052;-73
2022/11/19 09:44:39;;;;;;;4.57;3.42;;;18.30;77.60;;;19.41;41.63;98378.06;5024731;28;20041;-73
2022/11/19 09:48:01;;;;;;;3.78;2.60;;;18.30;77.40;;;19.39;41.43;98377.63;5022060;28;20042;-73
2022/11/19 09:50:32;;;;;;;4.45;2.85;;;18.40;76.90;;;19.36;41.51;98379.09;5023307;28;20060;-73
2022/11/19 09:53:02;;;;;;;4.50;2.97;;;18.30;76.80;;;19.38;41.36;98378.75;5025240;28;20531;-73
2022/11/19 09:55:39;;;;;;;3.17;2.60;;;18.30;77.00;;;19.35;41.29;98379.44;5023101;28;20040;-73
2022/11/19 09:58:20;;;;;;;3.17;2.63;;;18.30;76.80;;;19.32;41.27;98383.66;5012709;28;20067;-73
2022/11/19 10:00:47;;;;;;;5.03;3.10;;;18.30;76.80;;;19.34;41.28;98383.34;5008831;28;20048;-73
2022/11/19 10:03:21;;;;;;;5.22;3.08;;;18.20;76.70;;;19.36;41.00;98381.84;5027299;28;20473;-73
2022/11/19 10:05:55;;;;;;;5.95;2.95;;;18.30;76.80;;;19.34;41.32;98384.13;5022879;28;20045;-73
2022/11/19 10:08:39;;;;;;;5.38;3.30;;;18.20;77.10;;;19.37;41.67;98388.16;5024969;28;20044;-77
2022/11/19 10:11:25;;;;;;;3.10;2.80;;;18.30;77.50;;;19.37;41.62;98383.44;5025682;28;20539;-73
2022/11/19 10:14:40;;;;;;;5.13;3.10;;;18.30;77.50;;;19.32;41.63;98377.38;5024374;28;20050;-73
2022/11/19 10:17:36;;;;;;;4.15;2.88;;;18.30;76.80;;;19.34;41.53;98373.13;5028163;28;20708;-73
2022/11/19 10:20:46;;;;;;;4.20;3.50;;;18.30;76.80;;;19.36;41.30;98372.78;5027315;28;20100;-74
2022/11/19 10:23:22;;;;;;;4.20;3.08;;;18.30;77.00;;;19.40;41.58;98371.75;5029539;28;20042;-74
2022/11/19 10:25:51;;;;;;;6.38;3.55;;;18.30;77.50;;;19.41;41.83;98372.56;5026206;28;20045;-75
2022/11/19 10:28:26;;;;;;;7.63;2.72;;;18.30;77.80;;;19.39;41.78;98372.91;5026831;28;20041;-77
2022/11/19 10:30:57;;;;;;;4.18;2.85;;;18.30;77.50;;;19.37;41.53;98377.94;5012045;28;20041;-75
2022/11/19 10:33:35;;;;;;;5.38;2.95;;;18.40;77.30;;;19.40;41.37;98381.97;5028228;28;20064;-74
2022/11/19 10:36:18;;;;;;;5.38;3.42;;;18.30;77.20;;;19.47;41.38;98373.94;5027374;28;20156;-75
2022/11/19 10:39:01;;;;;;;6.18;2.97;;;18.30;76.80;;;19.43;41.58;98378.50;5028608;28;20041;-74
2022/11/19 10:41:41;;;;;;;4.38;2.78;;;18.30;77.80;;;19.51;41.75;98374.84;5010867;28;20382;-74
2022/11/19 10:44:42;;;;;;;8.90;3.30;;;18.40;78.00;;;19.49;43.08;98368.91;5033624;28;20543;-74
2022/11/19 10:47:29;;;;;;;13.18;4.15;;;18.50;79.70;;;19.18;44.63;98364.72;5010600;28;20084;-80
2022/11/19 10:49:56;;;;;;;19.65;4.72;;;18.50;80.90;;;18.91;46.76;98368.13;5023547;28;20095;-80
2022/11/19 10:52:41;;;;;;;13.77;5.80;;;18.40;83.90;;;18.77;47.14;98355.47;5009692;28;20041;-81